createdAt,value
2023-01-27T00:00:54.571Z,102539.09
2023-01-27T00:03:21.870Z,102580.47
2023-01-27T00:05:49.105Z,102594.44
2023-01-27T00:08:16.937Z,102589.16
2023-01-27T00:10:43.917Z,102595.22
2023-01-27T00:13:27.488Z,102595.13
2023-01-27T00:15:55.003Z,102597.63
2023-01-27T00:18:23.438Z,102593.22
2023-01-27T00:21:09.429Z,102589.69
2023-01-27T00:23:55.859Z,102593.06
2023-01-27T00:26:22.956Z,102594.75
2023-01-27T00:28:50.125Z,102593.78
2023-01-27T00:31:37.930Z,102599.81
2023-01-27T00:34:11.380Z,102595.38
2023-01-27T00:36:41.475Z,102566.09
2023-01-27T00:39:11.279Z,102593.34
2023-01-27T00:41:38.950Z,102616.03
2023-01-27T00:44:07.441Z,102586.22
2023-01-27T00:46:34.812Z,102595.88
2023-01-27T00:49:01.904Z,102601.13
2023-01-27T00:51:28.983Z,102604.56
2023-01-27T00:53:56.333Z,102606.28
2023-01-27T00:56:23.302Z,102606.28
2023-01-27T00:58:50.304Z,102600.13
2023-01-27T01:01:17.757Z,102593.19
2023-01-27T01:03:46.206Z,102596.63
2023-01-27T01:06:15.905Z,102591.38
2023-01-27T01:08:43.353Z,102593.06
2023-01-27T01:11:13.695Z,102586.94
2023-01-27T01:13:41.651Z,102583.38
2023-01-27T01:16:20.468Z,102586.84
2023-01-27T01:18:48.935Z,102592.88
2023-01-27T01:21:16.842Z,102581.59
2023-01-27T01:23:45.966Z,102584.13
2023-01-27T01:26:15.489Z,102584.03
2023-01-27T01:28:44.593Z,102499.31
2023-01-27T01:31:15.644Z,102593.56
2023-01-27T01:33:42.825Z,102584.84
2023-01-27T01:36:15.829Z,102514.06
2023-01-27T01:38:43.262Z,102578.69
2023-01-27T01:41:14.984Z,102577.75
2023-01-27T01:43:42.394Z,102579.50
2023-01-27T01:46:11.317Z,102584.66
2023-01-27T01:49:00.659Z,102586.31
2023-01-27T01:51:43.336Z,102581.94
2023-01-27T01:54:21.842Z,102581.00
2023-01-27T01:57:05.075Z,102576.59
2023-01-27T01:59:38.768Z,102569.59
2023-01-27T02:02:11.295Z,102574.72
2023-01-27T02:04:44.932Z,102576.50
2023-01-27T02:07:18.624Z,102582.53
2023-01-27T02:09:45.640Z,102581.66
2023-01-27T02:12:13.774Z,102577.28
2023-01-27T02:14:41.906Z,102565.00
2023-01-27T02:17:11.565Z,102582.38
2023-01-27T02:19:56.850Z,102576.28
2023-01-27T02:22:56.185Z,102577.97
2023-01-27T02:25:34.288Z,102557.78
2023-01-27T02:28:07.007Z,102565.56
2023-01-27T02:30:34.964Z,102578.72
2023-01-27T02:33:02.082Z,102577.88
2023-01-27T02:35:42.966Z,102583.06
2023-01-27T02:38:13.714Z,102582.97
2023-01-27T02:40:41.639Z,102578.53
2023-01-27T02:43:08.679Z,102592.53
2023-01-27T02:45:36.417Z,102581.28
2023-01-27T02:48:03.747Z,102565.38
2023-01-27T02:50:31.419Z,102583.88
2023-01-27T02:52:58.731Z,102588.22
2023-01-27T02:55:25.784Z,102573.22
2023-01-27T02:57:52.729Z,102578.69
2023-01-27T03:00:35.078Z,102574.31
2023-01-27T03:03:02.193Z,102566.53
2023-01-27T03:05:29.305Z,102565.63
2023-01-27T03:07:56.420Z,102554.31
2023-01-27T03:10:23.427Z,102567.38
2023-01-27T03:12:50.726Z,102568.22
2023-01-27T03:15:36.324Z,102569.97
2023-01-27T03:18:16.092Z,102565.56
2023-01-27T03:20:48.272Z,102561.28
2023-01-27T03:23:17.794Z,102562.97
2023-01-27T03:25:49.321Z,102564.72
2023-01-27T03:28:16.402Z,102555.03
2023-01-27T03:31:08.534Z,102514.34
2023-01-27T03:33:43.985Z,102561.13
2023-01-27T03:36:48.361Z,102565.44
2023-01-27T03:39:34.975Z,102551.53
2023-01-27T03:42:21.610Z,102542.72
2023-01-27T03:45:08.459Z,102526.81
2023-01-27T03:47:35.479Z,102548.72
2023-01-27T03:50:02.554Z,102539.22
2023-01-27T03:52:29.670Z,102530.56
2023-01-27T03:54:56.796Z,102526.13
2023-01-27T03:57:23.722Z,102526.13
2023-01-27T03:59:50.711Z,102527.03
2023-01-27T04:02:36.282Z,102452.78
2023-01-27T04:05:21.794Z,102497.03
2023-01-27T04:07:49.084Z,102514.81
2023-01-27T04:10:16.346Z,102505.19
2023-01-27T04:12:43.206Z,102507.78
2023-01-27T04:15:10.255Z,102506.91
2023-01-27T04:17:41.138Z,102505.13
2023-01-27T04:20:09.105Z,102506.88
2023-01-27T04:22:36.397Z,102507.69
2023-01-27T04:25:03.510Z,102498.13
2023-01-27T04:27:30.431Z,102492.81
2023-01-27T04:29:57.342Z,102497.09
2023-01-27T04:32:24.581Z,102495.53
2023-01-27T04:34:51.573Z,102492.94
2023-01-27T04:37:18.528Z,102493.75
2023-01-27T04:39:46.062Z,102498.06
2023-01-27T04:42:13.034Z,102484.69
2023-01-27T04:44:40.304Z,102505.94
2023-01-27T04:47:07.227Z,102503.31
2023-01-27T04:49:34.255Z,102501.63
2023-01-27T04:52:01.152Z,102497.28
2023-01-27T04:54:28.152Z,102492.97
2023-01-27T04:57:00.850Z,102493.88
2023-01-27T04:59:28.134Z,102489.53
2023-01-27T05:01:55.241Z,102482.63
2023-01-27T05:04:22.524Z,102486.13
2023-01-27T05:06:49.665Z,102467.69
2023-01-27T05:09:16.600Z,102482.66
2023-01-27T05:11:43.764Z,102478.41
2023-01-27T05:14:10.718Z,102487.97
2023-01-27T05:16:38.767Z,102456.94
2023-01-27T05:19:07.378Z,102488.00
2023-01-27T05:21:34.312Z,102488.00
2023-01-27T05:24:02.100Z,102501.13
2023-01-27T05:26:29.016Z,102488.00
2023-01-27T05:29:00.334Z,102481.22
2023-01-27T05:31:31.476Z,102474.25
2023-01-27T05:34:00.418Z,102472.56
2023-01-27T05:36:28.766Z,102465.66
2023-01-27T05:38:56.568Z,102470.00
2023-01-27T05:41:23.817Z,102475.25
2023-01-27T05:43:55.904Z,102455.25
2023-01-27T05:46:31.822Z,102467.53
2023-01-27T05:49:07.309Z,102465.00
2023-01-27T05:51:36.892Z,102458.06
2023-01-27T05:54:04.483Z,102462.44
2023-01-27T05:56:31.919Z,102465.97
2023-01-27T05:58:59.861Z,102467.72
2023-01-27T06:01:32.817Z,102473.03
2023-01-27T06:04:20.492Z,102471.31
2023-01-27T06:07:07.461Z,102477.44
2023-01-27T06:09:54.397Z,102468.66
2023-01-27T06:12:41.384Z,102473.16
2023-01-27T06:15:28.881Z,102469.69
2023-01-27T06:18:15.989Z,102482.63
2023-01-27T06:21:03.611Z,102487.13
2023-01-27T06:23:50.936Z,102490.59
2023-01-27T06:26:39.550Z,102468.91
2023-01-27T06:29:26.489Z,102474.19
2023-01-27T06:32:13.331Z,102466.38
2023-01-27T06:35:00.249Z,102471.63
2023-01-27T06:37:49.417Z,102470.75
2023-01-27T06:40:36.725Z,102475.13
2023-01-27T06:43:23.642Z,102467.34
2023-01-27T06:46:11.279Z,102471.69
2023-01-27T06:48:58.169Z,102469.94
2023-01-27T06:51:45.385Z,102463.78
2023-01-27T06:54:32.695Z,102457.81
2023-01-27T06:57:19.600Z,102452.59
2023-01-27T07:00:06.575Z,102462.13
2023-01-27T07:02:53.596Z,102462.94
2023-01-27T07:05:40.561Z,102462.97
2023-01-27T07:08:27.907Z,102458.44
2023-01-27T07:11:14.829Z,102460.34
2023-01-27T07:14:01.888Z,102463.84
2023-01-27T07:16:49.175Z,102464.59
2023-01-27T07:19:36.546Z,102461.94
2023-01-27T07:22:23.560Z,102460.25
2023-01-27T07:25:10.495Z,102458.53
2023-01-27T07:27:57.289Z,102447.06
2023-01-27T07:30:44.844Z,102464.53
2023-01-27T07:33:33.096Z,102461.06
2023-01-27T07:36:20.068Z,102453.19
2023-01-27T07:39:10.518Z,102447.81
2023-01-27T07:41:57.491Z,102442.53
2023-01-27T07:44:24.932Z,102443.56
2023-01-27T07:46:51.857Z,102438.28
2023-01-27T07:49:19.046Z,102406.41
2023-01-27T07:51:46.291Z,102418.00
2023-01-27T07:54:13.243Z,102432.13
2023-01-27T07:56:40.086Z,102440.72
2023-01-27T07:59:07.128Z,102443.34
2023-01-27T08:01:34.074Z,102441.59
2023-01-27T08:04:01.055Z,102438.88
2023-01-27T08:06:28.320Z,102431.09
2023-01-27T08:08:55.201Z,102430.09
2023-01-27T08:11:22.084Z,102354.78
2023-01-27T08:13:48.919Z,102430.94
2023-01-27T08:16:16.349Z,102400.84
2023-01-27T08:18:43.352Z,102426.53
2023-01-27T08:21:12.652Z,102428.25
2023-01-27T08:23:40.084Z,102392.16
2023-01-27T08:26:07.472Z,102361.09
2023-01-27T08:28:35.828Z,102420.41
2023-01-27T08:31:31.869Z,102421.25
2023-01-27T08:34:18.891Z,102416.69
2023-01-27T08:37:05.918Z,102415.88
2023-01-27T08:39:34.210Z,102418.59
2023-01-27T08:42:01.025Z,102419.38
2023-01-27T08:44:29.102Z,102427.28
2023-01-27T08:46:55.992Z,102429.81
2023-01-27T08:49:22.835Z,102424.63
2023-01-27T08:51:49.788Z,102427.22
2023-01-27T08:54:16.817Z,102424.56
2023-01-27T08:56:43.770Z,102419.47
2023-01-27T08:59:10.738Z,102415.13
2023-01-27T09:01:37.825Z,102402.97
2023-01-27T09:04:04.896Z,102412.59
2023-01-27T09:06:31.864Z,102408.25
2023-01-27T09:09:12.268Z,102397.00
2023-01-27T09:12:05.186Z,102390.06
2023-01-27T09:14:52.197Z,102397.03
2023-01-27T09:17:39.123Z,102402.28
2023-01-27T09:20:26.684Z,102410.13
2023-01-27T09:23:15.404Z,102356.38
2023-01-27T09:26:02.320Z,102403.25
2023-01-27T09:28:49.172Z,102400.78
2023-01-27T09:31:36.373Z,102407.72
2023-01-27T09:34:23.863Z,102398.16
2023-01-27T09:37:27.826Z,102384.19
2023-01-27T09:40:22.987Z,102404.41
2023-01-27T09:43:25.122Z,102394.94
2023-01-27T09:46:28.718Z,102393.31
2023-01-27T09:49:29.141Z,102375.94
2023-01-27T09:52:47.982Z,102365.75
2023-01-27T09:55:55.874Z,102365.81
2023-01-27T09:59:10.628Z,102358.78
2023-01-27T10:02:42.098Z,102371.19
2023-01-27T10:05:56.720Z,102370.44
2023-01-27T10:08:43.749Z,102369.63
2023-01-27T10:11:51.691Z,102361.09
2023-01-27T10:14:59.074Z,102365.53
2023-01-27T10:17:51.770Z,102362.13
2023-01-27T10:20:44.850Z,102353.56
2023-01-27T10:24:19.514Z,102342.34
2023-01-27T10:27:10.682Z,102333.75
2023-01-27T10:30:05.648Z,102331.25
2023-01-27T10:33:11.462Z,102326.97
2023-01-27T10:36:19.578Z,102314.03
2023-01-27T10:39:23.186Z,102241.03
2023-01-27T10:42:45.904Z,102311.63
2023-01-27T10:45:26.138Z,102308.22
2023-01-27T10:47:53.393Z,102313.56
2023-01-27T10:50:27.867Z,102298.75
2023-01-27T10:53:10.650Z,102306.78
2023-01-27T10:55:46.919Z,102284.06
2023-01-27T10:58:31.797Z,102303.53
2023-01-27T11:03:54.175Z,102295.91
2023-01-27T11:06:28.074Z,102291.66
2023-01-27T11:09:19.021Z,102296.13
2023-01-27T11:11:47.029Z,102277.94
2023-01-27T11:14:16.795Z,102279.81
2023-01-27T11:17:08.797Z,102272.00
2023-01-27T11:19:44.394Z,102267.78
2023-01-27T11:22:21.885Z,102265.28
2023-01-27T11:24:59.950Z,102253.16
2023-01-27T11:28:08.659Z,102245.44
2023-01-27T11:30:46.472Z,102262.03
2023-01-27T11:33:30.013Z,102257.75
2023-01-27T11:35:57.038Z,102255.28
2023-01-27T11:38:24.236Z,102245.75
2023-01-27T11:40:53.210Z,102238.00
2023-01-27T11:43:27.782Z,102238.06
2023-01-27T11:46:06.818Z,102231.97
2023-01-27T11:48:42.375Z,102224.22
2023-01-27T11:51:18.096Z,102220.88
2023-01-27T11:53:46.245Z,102220.97
2023-01-27T11:56:19.410Z,102213.97
2023-01-27T11:59:08.435Z,102175.34
2023-01-27T12:01:48.185Z,102170.22
2023-01-27T12:04:24.260Z,102219.47
2023-01-27T12:07:04.741Z,102186.19
2023-01-27T12:09:39.951Z,102211.75
2023-01-27T12:12:16.017Z,102212.72
2023-01-27T12:14:49.546Z,102204.06
2023-01-27T12:17:40.415Z,102194.53
2023-01-27T12:20:39.244Z,102190.22
2023-01-27T12:23:20.348Z,102182.47
2023-01-27T12:26:00.269Z,102172.03
2023-01-27T12:28:27.597Z,102181.72
2023-01-27T12:30:57.944Z,102153.78
2023-01-27T12:33:30.585Z,102161.78
2023-01-27T12:36:01.171Z,102161.84
2023-01-27T12:38:33.444Z,102174.97
2023-01-27T12:41:04.882Z,102169.81
2023-01-27T12:43:32.251Z,102105.72
2023-01-27T12:46:11.424Z,102168.13
2023-01-27T12:48:48.527Z,102161.25
2023-01-27T12:51:20.265Z,102113.91
2023-01-27T12:53:49.713Z,102120.94
2023-01-27T12:56:24.503Z,102149.19
2023-01-27T12:58:58.476Z,102148.38
2023-01-27T13:01:31.121Z,102135.34
2023-01-27T13:04:06.968Z,102099.44
2023-01-27T13:06:43.279Z,102130.22
2023-01-27T13:09:36.522Z,102131.13
2023-01-27T13:12:25.003Z,102117.22
2023-01-27T13:14:56.629Z,102105.06
2023-01-27T13:17:26.944Z,102104.22
2023-01-27T13:19:58.238Z,102105.16
2023-01-27T13:22:27.159Z,102049.03
2023-01-27T13:25:02.931Z,102073.78
2023-01-27T13:27:37.289Z,102085.25
2023-01-27T13:30:15.412Z,102071.34
2023-01-27T13:32:47.625Z,102072.28
2023-01-27T13:35:41.380Z,102077.53
2023-01-27T13:38:18.294Z,102067.91
2023-01-27T13:40:46.855Z,102072.41
2023-01-27T13:43:40.495Z,102064.59
2023-01-27T13:46:17.363Z,102067.22
2023-01-27T13:48:54.575Z,102061.16
2023-01-27T13:51:25.220Z,102048.97
2023-01-27T13:54:02.235Z,102016.47
2023-01-27T13:56:32.340Z,102056.91
2023-01-27T13:58:59.363Z,102048.19
2023-01-27T14:02:17.760Z,102031.63
2023-01-27T14:05:35.498Z,102041.28
2023-01-27T14:08:41.090Z,102031.75
2023-01-27T14:11:28.069Z,102030.91
2023-01-27T14:14:57.363Z,102032.66
2023-01-27T14:18:03.926Z,102024.84
2023-01-27T14:21:00.934Z,101983.72
2023-01-27T14:24:18.523Z,102007.44
2023-01-27T14:27:27.201Z,102006.63
2023-01-27T14:30:31.251Z,102005.75
2023-01-27T14:33:43.789Z,102000.53
2023-01-27T14:36:41.612Z,101991.00
2023-01-27T14:39:49.116Z,101986.56
2023-01-27T14:42:42.527Z,102001.47
2023-01-27T14:45:48.371Z,102002.34
2023-01-27T14:48:21.236Z,101980.53
2023-01-27T14:51:32.572Z,101924.44
2023-01-27T14:54:53.611Z,101987.59
2023-01-27T14:58:08.000Z,101976.22
2023-01-27T15:01:10.545Z,101957.06
2023-01-27T15:04:35.975Z,101971.06
2023-01-27T15:07:07.812Z,101978.94
2023-01-27T15:10:09.895Z,101969.38
2023-01-27T15:12:53.698Z,101965.03
2023-01-27T15:15:40.892Z,101971.16
2023-01-27T15:18:35.258Z,101945.75
2023-01-27T15:21:20.769Z,101962.44
2023-01-27T15:24:04.611Z,101958.13
2023-01-27T15:26:32.924Z,101959.84
2023-01-27T15:29:00.781Z,101958.97
2023-01-27T15:31:50.443Z,101965.09
2023-01-27T15:34:44.440Z,101961.59
2023-01-27T15:37:41.645Z,101959.00
2023-01-27T15:40:31.685Z,101957.25
2023-01-27T15:43:18.546Z,101940.69
2023-01-27T15:46:06.431Z,101936.34
2023-01-27T15:48:58.811Z,101931.13
2023-01-27T15:51:46.478Z,101896.13
2023-01-27T15:54:50.539Z,101919.81
2023-01-27T15:57:55.377Z,101908.50
2023-01-27T16:00:51.099Z,101909.34
2023-01-27T16:03:49.702Z,101911.13
2023-01-27T16:06:42.273Z,101911.97
2023-01-27T16:09:34.881Z,101915.47
2023-01-27T16:12:47.098Z,101914.59
2023-01-27T16:15:39.660Z,101909.34
2023-01-27T16:18:26.532Z,101909.38
2023-01-27T16:21:24.709Z,101903.28
2023-01-27T16:24:18.186Z,101897.19
2023-01-27T16:27:24.060Z,101893.69
2023-01-27T16:30:41.892Z,101821.03
2023-01-27T16:33:36.703Z,101892.84
2023-01-27T16:36:35.472Z,101892.84
2023-01-27T16:39:50.998Z,101893.69
2023-01-27T16:42:38.012Z,101892.84
2023-01-27T16:45:40.187Z,101878.88
2023-01-27T16:48:54.377Z,101882.38
2023-01-27T16:51:43.969Z,101878.91
2023-01-27T16:54:48.781Z,101871.94
2023-01-27T16:57:56.550Z,101872.78
2023-01-27T17:00:48.274Z,101815.06
2023-01-27T17:03:38.600Z,101856.22
2023-01-27T17:06:28.910Z,101864.13
2023-01-27T17:09:15.906Z,101866.75
2023-01-27T17:12:02.734Z,101850.19
2023-01-27T17:14:56.182Z,101857.16
2023-01-27T17:17:45.241Z,101854.56
2023-01-27T17:20:46.160Z,101800.34
2023-01-27T17:23:48.591Z,101841.50
2023-01-27T17:26:37.925Z,101808.28
2023-01-27T17:29:25.331Z,101793.47
2023-01-27T17:32:12.290Z,101819.72
2023-01-27T17:35:01.079Z,101819.72
2023-01-27T17:37:50.812Z,101809.25
2023-01-27T17:40:42.572Z,101804.03
2023-01-27T17:43:49.004Z,101818.88
2023-01-27T17:46:44.645Z,101805.81
2023-01-27T17:49:33.997Z,101803.19
2023-01-27T17:52:06.265Z,101796.22
2023-01-27T17:54:55.873Z,101784.84
2023-01-27T17:57:49.001Z,101777.91
2023-01-27T18:00:50.350Z,101706.22
2023-01-27T18:03:40.452Z,101777.94
2023-01-27T18:06:33.684Z,101780.56
2023-01-27T18:09:33.001Z,101708.88
2023-01-27T18:12:24.162Z,101782.31
2023-01-27T18:15:11.770Z,101782.31
2023-01-27T18:17:58.835Z,101776.25
2023-01-27T18:20:48.947Z,101770.13
2023-01-27T18:23:41.321Z,101758.81
2023-01-27T18:26:36.352Z,101757.06
2023-01-27T18:29:37.593Z,101748.34
2023-01-27T18:32:35.229Z,101741.38
2023-01-27T18:35:22.089Z,101742.25
2023-01-27T18:38:15.292Z,101750.09
2023-01-27T18:41:02.180Z,101737.91
2023-01-27T18:43:49.346Z,101736.16
2023-01-27T18:46:36.198Z,101724.81
2023-01-27T18:49:23.234Z,101697.75
2023-01-27T18:52:10.052Z,101709.97
2023-01-27T18:54:57.141Z,101706.50
2023-01-27T18:57:44.114Z,101713.47
2023-01-27T19:00:34.373Z,101696.03
2023-01-27T19:03:21.944Z,101709.13
2023-01-27T19:06:09.301Z,101714.38
2023-01-27T19:08:56.196Z,101712.59
2023-01-27T19:11:43.236Z,101705.63
2023-01-27T19:14:30.301Z,101709.16
2023-01-27T19:17:17.324Z,101697.78
2023-01-27T19:20:04.161Z,101681.19
2023-01-27T19:22:51.292Z,101694.28
2023-01-27T19:25:38.668Z,101623.53
2023-01-27T19:28:31.261Z,101689.94
2023-01-27T19:31:18.594Z,101647.13
2023-01-27T19:34:05.777Z,101676.84
2023-01-27T19:37:04.416Z,101674.22
2023-01-27T19:39:51.719Z,101662.91
2023-01-27T19:42:38.523Z,101648.03
2023-01-27T19:45:25.983Z,101660.28
2023-01-27T19:48:12.953Z,101658.50
2023-01-27T19:51:00.020Z,101662.00
2023-01-27T19:53:46.979Z,101629.69
2023-01-27T19:56:39.765Z,101641.94
2023-01-27T19:59:26.717Z,101636.72
2023-01-27T20:02:13.987Z,101634.94
2023-01-27T20:05:01.068Z,101623.63
2023-01-27T20:07:48.163Z,101637.56
2023-01-27T20:10:51.904Z,101630.59
2023-01-27T20:13:40.944Z,101627.97
2023-01-27T20:16:28.228Z,101622.72
2023-01-27T20:19:15.549Z,101622.72
2023-01-27T20:22:03.611Z,101624.47
2023-01-27T20:24:50.501Z,101620.09
2023-01-27T20:27:37.440Z,101623.59
2023-01-27T20:30:24.864Z,101614.88
2023-01-27T20:33:11.890Z,101559.00
2023-01-27T20:35:58.702Z,101611.34
2023-01-27T20:38:45.737Z,101598.28
2023-01-27T20:41:36.624Z,101611.34
2023-01-27T20:44:23.597Z,101599.13
2023-01-27T20:47:10.542Z,101597.41
2023-01-27T20:49:57.752Z,101583.41
2023-01-27T20:52:44.941Z,101576.44
2023-01-27T20:55:33.627Z,101562.47
2023-01-27T20:58:20.507Z,101568.59
2023-01-27T21:01:08.297Z,101556.34
2023-01-27T21:03:56.769Z,101552.88
2023-01-27T21:06:43.835Z,101551.09
2023-01-27T21:09:30.922Z,101544.13
2023-01-27T21:12:18.089Z,101537.16
2023-01-27T21:15:04.916Z,101539.75
2023-01-27T21:17:51.858Z,101535.34
2023-01-27T21:20:38.816Z,101460.38
2023-01-27T21:23:25.659Z,101506.56
2023-01-27T21:26:12.579Z,101517.91
2023-01-27T21:28:59.665Z,101500.44
2023-01-27T21:31:46.910Z,101503.06
2023-01-27T21:34:34.071Z,101491.69
2023-01-27T21:37:21.105Z,101500.41
2023-01-27T21:40:08.219Z,101471.63
2023-01-27T21:42:53.869Z,101490.81
2023-01-27T21:45:40.817Z,101487.31
2023-01-27T21:48:29.825Z,101467.25
2023-01-27T21:51:16.638Z,101456.75
2023-01-27T21:54:03.658Z,101461.06
2023-01-27T21:56:50.634Z,101463.69
2023-01-27T21:59:37.580Z,101462.81
2023-01-27T22:02:35.104Z,101436.63
2023-01-27T22:05:22.021Z,101461.06
2023-01-27T22:08:09.594Z,101407.88
2023-01-27T22:10:57.362Z,101445.31
2023-01-27T22:13:44.232Z,101438.34
2023-01-27T22:16:36.350Z,101420.00
2023-01-27T22:19:23.439Z,101406.00
2023-01-27T22:22:10.354Z,101407.72
2023-01-27T22:24:57.559Z,101415.59
2023-01-27T22:27:44.606Z,101410.31
2023-01-27T22:30:37.164Z,101397.25
2023-01-27T22:33:24.112Z,101393.75
2023-01-27T22:36:19.007Z,101391.97
2023-01-27T22:39:06.042Z,101388.50
2023-01-27T22:41:53.189Z,101383.25
2023-01-27T22:44:40.364Z,101371.84
2023-01-27T22:47:27.297Z,101369.22
2023-01-27T22:50:14.417Z,101343.91
2023-01-27T22:53:01.766Z,101350.88
2023-01-27T22:55:48.720Z,101335.16
2023-01-27T22:58:35.576Z,101313.38
2023-01-27T23:01:25.927Z,101318.56
2023-01-27T23:04:12.911Z,101315.06
2023-01-27T23:06:59.842Z,101334.25
2023-01-27T23:09:46.845Z,101328.09
2023-01-27T23:12:34.120Z,101320.28
2023-01-27T23:15:21.068Z,101308.03
2023-01-27T23:18:08.818Z,101308.00
2023-01-27T23:20:57.906Z,101306.22
2023-01-27T23:23:44.817Z,101297.50
2023-01-27T23:26:32.263Z,101293.09
2023-01-27T23:29:24.839Z,101284.38
2023-01-27T23:32:12.679Z,101266.09
2023-01-27T23:34:59.589Z,101288.72
2023-01-27T23:37:47.039Z,101202.56
2023-01-27T23:40:34.125Z,101255.50
2023-01-27T23:43:21.673Z,101090.38
2023-01-27T23:46:15.045Z,101246.81
2023-01-27T23:49:02.049Z,101251.09
2023-01-27T23:51:49.161Z,101239.75
2023-01-27T23:54:36.276Z,101240.59
2023-01-27T23:57:23.329Z,101181.41
